Terminal Aerodrome Forecast
Issued by NWS

Current Version | Previous Version | Graphics & Text | Print | Product List | Glossary On
Versions: 1 2 3 4 5 6 7 8 9 10 11 12 13 14 15 16 17 18 19
000
FTUS41 KPBZ 240500
TAFMGW
TAF
KMGW 240520Z 2406/2506 01004KT 4SM BR VCSH OVC004
     FM241000 02005KT P6SM OVC007
     FM241300 02005KT P6SM VCSH OVC015
     FM241700 04005KT P6SM BKN035
     FM242200 03005KT P6SM SKC=

USA.gov is the U.S. government's official web portal to all federal, state and local government web resources and services.